Time;durP1;ratioP1;P1;durP2;ratioP2;P2;SDS_P1;SDS_P2;PMS_P1;PMS_P2;Temp;Humidity;BMP_temperature;BMP_pressure;BME280_temperature;BME280_humidity;BME280_pressure;Samples;Min_cycle;Max_cycle;Signal;HPM_P1;HPM_P2
2023/10/22 00:01:05;;;;;;;;;;;;;;;17.44;51.12;96108.19;4217721;28;5762;-70
2023/10/22 00:03:08;;;;;;;;;;;;;;;17.45;51.32;96117.81;4216680;28;5766;-70
2023/10/22 00:05:11;;;;;;;;;;;;;;;17.45;51.23;96115.13;4217494;28;5742;-70
2023/10/22 00:07:15;;;;;;;;;;;;;;;17.46;51.18;96115.94;4216246;28;5831;-70
2023/10/22 00:09:18;;;;;;;;;;;;;;;17.48;51.36;96119.16;4214533;28;5734;-70
2023/10/22 00:11:21;;;;;;;;;;;;;;;17.50;51.37;96116.22;4211805;28;5688;-70
2023/10/22 00:13:24;;;;;;;;;;;;;;;17.48;51.20;96113.81;4216282;28;5620;-71
2023/10/22 00:15:27;;;;;;;;;;;;;;;17.48;51.39;96111.13;4217481;28;6847;-70
2023/10/22 00:17:29;;;;;;;;;;;;;;;17.50;51.27;96105.53;4216545;28;5754;-70
2023/10/22 00:19:32;;;;;;;;;;;;;;;17.53;51.27;96118.38;4217343;28;5746;-71
2023/10/22 00:21:35;;;;;;;;;;;;;;;17.50;51.09;96116.22;4221385;28;5684;-71
2023/10/22 00:23:39;;;;;;;;;;;;;;;17.51;51.27;96125.84;4211558;28;5233;-71
2023/10/22 00:25:42;;;;;;;;;;;;;;;17.50;51.10;96129.59;4217307;28;6021;-70
2023/10/22 00:27:46;;;;;;;;;;;;;;;17.51;51.28;96131.19;4216339;28;7694;-71
2023/10/22 00:29:49;;;;;;;;;;;;;;;17.50;51.17;96129.59;4216761;28;5674;-70
2023/10/22 00:31:52;;;;;;;;;;;;;;;17.48;51.34;96135.19;4222615;28;5774;-70
2023/10/22 00:33:54;;;;;;;;;;;;;;;17.48;51.09;96142.41;4215435;28;5643;-70
2023/10/22 00:35:58;;;;;;;;;;;;;;;17.39;50.83;96140.16;4215522;28;5989;-71
2023/10/22 00:38:02;;;;;;;;;;;;;;;17.35;51.14;96135.59;4203968;28;5118;-71
2023/10/22 00:40:08;;;;;;;;;;;;;;;17.36;51.10;96131.88;4216937;28;5688;-71
2023/10/22 00:42:10;;;;;;;;;;;;;;;17.38;51.02;96137.75;4209095;28;5714;-71
2023/10/22 00:44:13;;;;;;;;;;;;;;;17.39;50.96;96142.84;4217299;28;5634;-71
2023/10/22 00:46:21;;;;;;;;;;;;;;;17.39;50.96;96147.38;4216522;28;5779;-71
2023/10/22 00:48:25;;;;;;;;;;;;;;;17.40;51.20;96146.31;4218600;28;5661;-72
2023/10/22 00:50:29;;;;;;;;;;;;;;;17.42;51.10;96137.00;4216706;28;5658;-71
2023/10/22 00:52:32;;;;;;;;;;;;;;;17.44;51.05;96144.75;4217317;28;5663;-71
2023/10/22 00:54:36;;;;;;;;;;;;;;;17.46;51.06;96145.31;4213394;28;5959;-71
2023/10/22 00:56:41;;;;;;;;;;;;;;;17.49;51.09;96144.00;4211743;28;6371;-71
2023/10/22 00:58:44;;;;;;;;;;;;;;;17.46;51.22;96154.16;4217243;28;5692;-71
2023/10/22 01:00:47;;;;;;;;;;;;;;;17.46;51.00;96145.31;4214951;28;5764;-71
2023/10/22 01:02:50;;;;;;;;;;;;;;;17.46;51.23;96154.16;4214629;28;5077;-71
2023/10/22 01:04:54;;;;;;;;;;;;;;;17.46;51.18;96156.81;4216797;28;5671;-71
2023/10/22 01:06:57;;;;;;;;;;;;;;;17.51;51.21;96163.25;4216484;28;5666;-71
2023/10/22 01:09:01;;;;;;;;;;;;;;;17.51;51.19;96153.38;4217107;28;5675;-71
2023/10/22 01:11:06;;;;;;;;;;;;;;;17.52;51.04;96155.00;4216247;28;5678;-71
2023/10/22 01:13:10;;;;;;;;;;;;;;;17.53;51.20;96158.47;4216813;28;5890;-71
2023/10/22 01:15:13;;;;;;;;;;;;;;;17.54;51.22;96166.22;4216909;28;5744;-71
2023/10/22 01:17:16;;;;;;;;;;;;;;;17.54;51.13;96168.09;4205311;28;5842;-71
2023/10/22 01:19:19;;;;;;;;;;;;;;;17.54;51.34;96160.88;4211955;28;5614;-70
2023/10/22 01:21:23;;;;;;;;;;;;;;;17.55;51.15;96159.81;4200783;28;5756;-71
2023/10/22 01:23:27;;;;;;;;;;;;;;;17.53;51.04;96161.16;4212981;28;5669;-72
2023/10/22 01:25:30;;;;;;;;;;;;;;;17.52;50.91;96162.19;4216944;28;5666;-71
2023/10/22 01:27:34;;;;;;;;;;;;;;;17.47;51.19;96160.31;4215328;28;5711;-71
2023/10/22 01:29:37;;;;;;;;;;;;;;;17.44;50.90;96163.44;4215699;28;5096;-71
2023/10/22 01:31:39;;;;;;;;;;;;;;;17.41;50.99;96167.44;4220102;27;5683;-71
2023/10/22 01:33:42;;;;;;;;;;;;;;;17.41;50.92;96162.09;4216429;28;5667;-71
2023/10/22 01:35:46;;;;;;;;;;;;;;;17.38;50.80;96169.81;4216964;28;6293;-71
2023/10/22 01:37:49;;;;;;;;;;;;;;;17.32;51.02;96181.50;4214676;28;5734;-70
2023/10/22 01:39:52;;;;;;;;;;;;;;;17.31;50.85;96172.66;4219350;28;5731;-70
2023/10/22 01:41:55;;;;;;;;;;;;;;;17.33;50.79;96173.25;4217181;28;6144;-70
2023/10/22 01:43:58;;;;;;;;;;;;;;;17.34;50.92;96166.84;4214968;28;5663;-70
2023/10/22 01:46:00;;;;;;;;;;;;;;;17.35;50.80;96171.13;4216044;28;5668;-70
2023/10/22 01:48:04;;;;;;;;;;;;;;;17.35;50.77;96171.13;4216950;28;5671;-70
2023/10/22 01:50:07;;;;;;;;;;;;;;;17.35;50.55;96178.34;4219039;28;5637;-71
2023/10/22 01:52:10;;;;;;;;;;;;;;;17.34;50.80;96171.38;4211241;28;5642;-70
2023/10/22 01:54:13;;;;;;;;;;;;;;;17.34;50.66;96179.41;4218433;28;5541;-70
2023/10/22 01:56:17;;;;;;;;;;;;;;;17.33;50.68;96178.59;4218552;28;5641;-69
2023/10/22 01:58:20;;;;;;;;;;;;;;;17.34;50.50;96185.56;4219489;28;5667;-70
2023/10/22 02:00:23;;;;;;;;;;;;;;;17.35;50.61;96187.16;4219660;28;5670;-70
2023/10/22 02:02:26;;;;;;;;;;;;;;;17.34;50.64;96184.75;4217123;28;5778;-70
2023/10/22 02:04:31;;;;;;;;;;;;;;;17.33;50.72;96178.59;4219144;28;5671;-70
2023/10/22 02:06:34;;;;;;;;;;;;;;;17.33;50.55;96191.16;4218843;28;5696;-70
2023/10/22 02:08:37;;;;;;;;;;;;;;;17.33;50.65;96194.63;4219574;28;5683;-70
2023/10/22 02:10:40;;;;;;;;;;;;;;;17.35;50.49;96195.19;4219344;28;5679;-70
2023/10/22 02:12:44;;;;;;;;;;;;;;;17.32;50.40;96195.66;4219220;28;5722;-70
2023/10/22 02:14:47;;;;;;;;;;;;;;;17.30;50.50;96197.78;4219467;28;5671;-70
2023/10/22 02:16:50;;;;;;;;;;;;;;;17.28;50.33;96205.25;4218906;28;5707;-70
2023/10/22 02:18:53;;;;;;;;;;;;;;;17.30;50.49;96200.44;4218671;28;5764;-70
2023/10/22 02:20:56;;;;;;;;;;;;;;;17.30;50.38;96202.31;4216906;28;5743;-70
2023/10/22 02:23:01;;;;;;;;;;;;;;;17.31;50.39;96207.41;4217829;28;6844;-70
2023/10/22 02:25:05;;;;;;;;;;;;;;;17.32;50.32;96205.53;4219512;28;5725;-70
2023/10/22 02:27:06;;;;;;;;;;;;;;;17.27;50.27;96208.97;4218209;28;5638;-70
2023/10/22 02:29:11;;;;;;;;;;;;;;;17.26;50.20;96217.22;4211027;28;5692;-71
2023/10/22 02:31:14;;;;;;;;;;;;;;;17.25;50.38;96213.75;4219201;28;5675;-71
2023/10/22 02:33:16;;;;;;;;;;;;;;;17.26;50.32;96223.38;4218496;28;5097;-71
2023/10/22 02:35:19;;;;;;;;;;;;;;;17.26;50.51;96215.38;4218870;28;5850;-71
2023/10/22 02:37:22;;;;;;;;;;;;;;;17.29;50.34;96225.56;4215891;28;5679;-70
2023/10/22 02:39:24;;;;;;;;;;;;;;;17.31;50.40;96223.44;4214987;28;5762;-71
2023/10/22 02:41:28;;;;;;;;;;;;;;;17.32;50.41;96219.69;4218012;28;5699;-70
2023/10/22 02:43:31;;;;;;;;;;;;;;;17.29;50.37;96225.56;4218819;28;5762;-71
2023/10/22 02:45:35;;;;;;;;;;;;;;;17.27;50.28;96216.97;4218582;28;5671;-70
2023/10/22 02:47:38;;;;;;;;;;;;;;;17.31;50.49;96217.28;4218160;28;5761;-70
2023/10/22 02:49:41;;;;;;;;;;;;;;;17.32;50.44;96214.34;4218561;28;5667;-70
2023/10/22 02:51:44;;;;;;;;;;;;;;;17.31;50.54;96223.44;4218958;28;6331;-70
2023/10/22 02:53:47;;;;;;;;;;;;;;;17.31;50.64;96225.28;4218584;28;5671;-70
2023/10/22 02:56:00;;;;;;;;;;;;;;;17.31;50.74;96225.28;4218770;28;5670;-70
2023/10/22 02:58:03;;;;;;;;;;;;;;;17.34;50.65;96228.28;4217090;28;5645;-70
2023/10/22 03:00:10;;;;;;;;;;;;;;;17.34;50.61;96228.28;4217785;28;5666;-70
2023/10/22 03:02:28;;;;;;;;;;;;;;;17.32;50.62;96227.72;4206230;28;5763;-70
2023/10/22 03:04:30;;;;;;;;;;;;;;;17.32;50.97;96235.72;4226202;28;5741;-71
2023/10/22 03:06:33;;;;;;;;;;;;;;;17.32;50.92;96229.56;4218188;28;6460;-70
2023/10/22 03:08:36;;;;;;;;;;;;;;;17.32;50.97;96222.38;4212616;28;5663;-71
2023/10/22 03:10:39;;;;;;;;;;;;;;;17.33;50.87;96229.34;4218489;28;5655;-71
2023/10/22 03:12:42;;;;;;;;;;;;;;;17.35;50.95;96229.09;4218713;28;5671;-71
2023/10/22 03:14:45;;;;;;;;;;;;;;;17.35;50.99;96229.91;4218213;28;5675;-71
2023/10/22 03:16:48;;;;;;;;;;;;;;;17.36;51.13;96226.19;4213250;28;5812;-71
2023/10/22 03:18:52;;;;;;;;;;;;;;;17.35;50.85;96227.25;4216466;28;5811;-71
2023/10/22 03:20:56;;;;;;;;;;;;;;;17.33;51.37;96226.69;4217174;28;5516;-72
2023/10/22 03:23:01;;;;;;;;;;;;;;;17.30;51.08;96227.16;4217648;28;5766;-71
2023/10/22 03:25:07;;;;;;;;;;;;;;;17.29;51.24;96224.75;4218388;28;5758;-71
2023/10/22 03:27:10;;;;;;;;;;;;;;;17.29;51.18;96230.91;4216821;28;5894;-71
2023/10/22 03:29:13;;;;;;;;;;;;;;;17.32;51.22;96234.91;4210443;28;5664;-72
2023/10/22 03:31:16;;;;;;;;;;;;;;;17.33;51.15;96232.03;4218010;28;5664;-71
2023/10/22 03:33:18;;;;;;;;;;;;;;;17.34;51.33;96236.31;4217439;28;5678;-71
2023/10/22 03:35:23;;;;;;;;;;;;;;;17.36;51.23;96231.53;4216324;28;5659;-71
2023/10/22 03:37:26;;;;;;;;;;;;;;;17.36;51.34;96231.53;4214754;28;5664;-71
2023/10/22 03:39:29;;;;;;;;;;;;;;;17.39;51.13;96231.00;4217989;28;5663;-71
2023/10/22 03:41:32;;;;;;;;;;;;;;;17.40;51.09;96243.31;4217318;28;5649;-70
2023/10/22 03:43:34;;;;;;;;;;;;;;;17.40;50.87;96232.63;4217986;28;5671;-71
2023/10/22 03:45:37;;;;;;;;;;;;;;;17.40;51.10;96239.84;4210800;28;5708;-70
2023/10/22 03:47:40;;;;;;;;;;;;;;;17.42;51.17;96251.88;4215065;28;5844;-70
2023/10/22 03:49:43;;;;;;;;;;;;;;;17.42;51.14;96253.75;4217753;28;5762;-71
2023/10/22 03:51:48;;;;;;;;;;;;;;;17.41;51.04;96254.81;4217018;28;5850;-70
2023/10/22 03:53:53;;;;;;;;;;;;;;;17.42;51.17;96246.53;4217829;28;5671;-71
2023/10/22 03:55:56;;;;;;;;;;;;;;;17.43;51.01;96255.34;4218001;28;5758;-70
2023/10/22 03:57:58;;;;;;;;;;;;;;;17.43;51.07;96252.69;4212854;28;5839;-70
2023/10/22 04:00:01;;;;;;;;;;;;;;;17.43;51.06;96250.81;4210966;28;6392;-70
2023/10/22 04:02:04;;;;;;;;;;;;;;;17.42;51.17;96259.91;4216533;28;5779;-70
2023/10/22 04:04:07;;;;;;;;;;;;;;;17.41;51.19;96258.28;4217567;28;5742;-70
2023/10/22 04:06:10;;;;;;;;;;;;;;;17.43;51.16;96258.03;4217598;28;5761;-70
2023/10/22 04:08:15;;;;;;;;;;;;;;;17.45;51.30;96262.09;4216592;28;5683;-70
2023/10/22 04:10:18;;;;;;;;;;;;;;;17.46;51.16;96270.91;4217111;28;5675;-71
2023/10/22 04:12:41;;;;;;;;;;;;;;;17.47;51.45;96280.53;4217186;28;5109;-71
2023/10/22 04:14:44;;;;;;;;;;;;;;;17.45;51.13;96280.00;4217424;28;5667;-69
2023/10/22 04:16:46;;;;;;;;;;;;;;;17.43;51.08;96282.88;4215482;28;6372;-70
2023/10/22 04:18:49;;;;;;;;;;;;;;;17.43;51.12;96279.41;4217153;28;5093;-70
2023/10/22 04:20:52;;;;;;;;;;;;;;;17.43;51.15;96284.75;4217252;28;5637;-70
2023/10/22 04:22:54;;;;;;;;;;;;;;;17.41;51.06;96292.22;4216752;28;5674;-71
2023/10/22 04:24:58;;;;;;;;;;;;;;;17.37;51.13;96297.25;4217435;28;5618;-71
2023/10/22 04:27:01;;;;;;;;;;;;;;;17.37;51.03;96291.09;4216421;28;5630;-70
2023/10/22 04:29:03;;;;;;;;;;;;;;;17.35;51.10;96299.38;4219677;28;5765;-70
2023/10/22 04:31:07;;;;;;;;;;;;;;;17.31;51.08;96287.53;4216780;28;6301;-70
2023/10/22 04:33:10;;;;;;;;;;;;;;;17.30;51.12;96291.28;4217603;28;5690;-71
2023/10/22 04:35:13;;;;;;;;;;;;;;;17.32;51.14;96293.69;4217370;28;5675;-71
2023/10/22 04:37:17;;;;;;;;;;;;;;;17.31;51.13;96300.91;4216524;28;5878;-71
2023/10/22 04:39:20;;;;;;;;;;;;;;;17.31;51.14;96292.88;4216842;28;5785;-71
2023/10/22 04:41:25;;;;;;;;;;;;;;;17.26;50.80;96300.03;4216852;28;5675;-69
2023/10/22 04:43:30;;;;;;;;;;;;;;;17.25;51.16;96303.78;4217257;28;5886;-70
2023/10/22 04:45:33;;;;;;;;;;;;;;;17.21;50.66;96308.78;4217416;28;5670;-70
2023/10/22 04:47:35;;;;;;;;;;;;;;;17.20;50.88;96303.69;4216472;28;5667;-70
2023/10/22 04:49:38;;;;;;;;;;;;;;;17.21;50.91;96297.28;4217279;28;5638;-70
2023/10/22 04:51:41;;;;;;;;;;;;;;;17.21;50.84;96302.63;4216574;28;5812;-70
2023/10/22 04:53:44;;;;;;;;;;;;;;;17.22;50.96;96304.28;4209013;28;5813;-70
2023/10/22 04:55:55;;;;;;;;;;;;;;;17.20;50.78;96304.50;4217282;28;5751;-70
2023/10/22 04:58:00;;;;;;;;;;;;;;;17.21;50.87;96298.09;4216069;28;5691;-70
2023/10/22 05:00:04;;;;;;;;;;;;;;;17.21;50.87;96311.44;4216549;28;5754;-70
2023/10/22 05:02:07;;;;;;;;;;;;;;;17.22;50.83;96310.44;4216830;28;5674;-71
2023/10/22 05:04:10;;;;;;;;;;;;;;;17.21;50.77;96316.78;4217057;28;6031;-70
2023/10/22 05:06:13;;;;;;;;;;;;;;;17.23;50.88;96317.38;4215202;28;5783;-70
2023/10/22 05:08:16;;;;;;;;;;;;;;;17.23;50.89;96312.03;4216370;28;5790;-71
2023/10/22 05:10:19;;;;;;;;;;;;;;;17.21;50.91;96307.97;4216594;28;5817;-70
2023/10/22 05:12:22;;;;;;;;;;;;;;;17.21;50.82;96314.13;4217156;28;5683;-70
2023/10/22 05:14:26;;;;;;;;;;;;;;;17.21;50.81;96311.44;4217136;28;5672;-70
2023/10/22 05:16:29;;;;;;;;;;;;;;;17.21;50.86;96319.47;4216650;28;5653;-71
2023/10/22 05:18:32;;;;;;;;;;;;;;;17.20;50.73;96312.50;4216758;28;5675;-70
2023/10/22 05:20:35;;;;;;;;;;;;;;;17.20;50.84;96315.19;4217196;28;5825;-70
2023/10/22 05:22:38;;;;;;;;;;;;;;;17.18;51.10;96310.09;4218286;28;5655;-70
2023/10/22 05:24:41;;;;;;;;;;;;;;;17.20;50.81;96319.72;4220595;28;5671;-70
2023/10/22 05:26:44;;;;;;;;;;;;;;;17.20;50.83;96317.84;4218099;28;5634;-69
2023/10/22 05:28:47;;;;;;;;;;;;;;;17.21;50.90;96324.00;4223605;28;5667;-70
2023/10/22 05:30:51;;;;;;;;;;;;;;;17.20;50.76;96323.19;4227671;28;5838;-70
2023/10/22 05:32:54;;;;;;;;;;;;;;;17.18;50.85;96326.13;4219084;28;6123;-70
2023/10/22 05:34:57;;;;;;;;;;;;;;;17.18;50.76;96323.44;4223413;28;5762;-70
2023/10/22 05:36:59;;;;;;;;;;;;;;;17.17;50.70;96318.34;4218842;28;5687;-69
2023/10/22 05:39:03;;;;;;;;;;;;;;;17.18;50.79;96319.97;4220394;28;5675;-70
2023/10/22 05:41:06;;;;;;;;;;;;;;;17.16;51.01;96317.53;4219655;28;5891;-70
2023/10/22 05:43:10;;;;;;;;;;;;;;;17.15;50.72;96326.63;4214665;28;6801;-70
2023/10/22 05:45:12;;;;;;;;;;;;;;;17.16;50.81;96335.44;4220224;28;5763;-70
2023/10/22 05:47:17;;;;;;;;;;;;;;;17.15;50.91;96328.47;4219071;28;5847;-70
2023/10/22 05:49:20;;;;;;;;;;;;;;;17.11;50.74;96332.69;4220135;28;5671;-70
2023/10/22 05:51:23;;;;;;;;;;;;;;;17.09;50.87;96340.13;4206088;28;5700;-70
2023/10/22 05:53:26;;;;;;;;;;;;;;;17.04;50.76;96340.88;4214023;28;6548;-70
2023/10/22 05:55:29;;;;;;;;;;;;;;;17.04;50.75;96340.06;4220083;28;5672;-71
2023/10/22 05:57:33;;;;;;;;;;;;;;;17.03;50.67;96335.78;4218724;28;5724;-70
2023/10/22 05:59:36;;;;;;;;;;;;;;;17.02;50.76;96334.97;4219418;28;6042;-70
2023/10/22 06:01:41;;;;;;;;;;;;;;;17.01;50.70;96348.56;4219427;28;6433;-70
2023/10/22 06:03:45;;;;;;;;;;;;;;;17.00;50.80;96346.97;4219852;28;5659;-70
2023/10/22 06:05:50;;;;;;;;;;;;;;;16.96;50.62;96345.81;4218845;28;5604;-70
2023/10/22 06:07:53;;;;;;;;;;;;;;;16.94;50.57;96340.72;4218603;28;5642;-70
2023/10/22 06:09:56;;;;;;;;;;;;;;;16.87;50.47;96346.25;4219635;28;6386;-70
2023/10/22 06:11:59;;;;;;;;;;;;;;;16.83;50.51;96347.75;4209266;28;6381;-70
2023/10/22 06:14:04;;;;;;;;;;;;;;;16.75;50.39;96352.69;4219007;28;5709;-71
2023/10/22 06:16:07;;;;;;;;;;;;;;;16.70;50.60;96344.63;4219182;28;5679;-70
2023/10/22 06:18:11;;;;;;;;;;;;;;;16.71;50.62;96352.38;4217632;28;6385;-70
2023/10/22 06:20:15;;;;;;;;;;;;;;;16.70;50.45;96348.09;4219675;28;5827;-71
2023/10/22 06:22:18;;;;;;;;;;;;;;;16.67;50.53;96361.91;4219554;28;5675;-70
2023/10/22 06:24:21;;;;;;;;;;;;;;;16.70;50.52;96369.44;4219602;28;5781;-70
2023/10/22 06:26:25;;;;;;;;;;;;;;;16.71;50.33;96367.59;4217887;28;5711;-70
2023/10/22 06:28:27;;;;;;;;;;;;;;;16.74;50.57;96375.09;4219281;28;5913;-71
2023/10/22 06:30:31;;;;;;;;;;;;;;;16.74;50.46;96375.91;4213580;28;5671;-71
2023/10/22 06:32:34;;;;;;;;;;;;;;;16.75;50.57;96382.06;4219452;28;6318;-70
2023/10/22 06:34:37;;;;;;;;;;;;;;;16.72;50.38;96380.69;4218392;28;5656;-71
2023/10/22 06:36:42;;;;;;;;;;;;;;;16.70;50.60;96385.44;4218649;28;5683;-70
2023/10/22 06:38:48;;;;;;;;;;;;;;;16.72;50.53;96385.22;4219291;28;5645;-71
2023/10/22 06:40:52;;;;;;;;;;;;;;;16.72;50.48;96391.34;4216585;28;5817;-70
2023/10/22 06:42:55;;;;;;;;;;;;;;;16.69;50.39;96389.19;4220870;28;5666;-72
2023/10/22 06:44:58;;;;;;;;;;;;;;;16.72;50.69;96386.03;4218546;28;5806;-71
2023/10/22 06:47:00;;;;;;;;;;;;;;;16.74;50.54;96391.91;4213139;28;5779;-70
2023/10/22 06:49:04;;;;;;;;;;;;;;;16.75;50.48;96390.88;4211445;28;5839;-70
2023/10/22 06:51:09;;;;;;;;;;;;;;;16.75;50.53;96390.88;4218403;27;5775;-71
2023/10/22 06:53:14;;;;;;;;;;;;;;;16.77;50.53;96398.66;4219471;28;5637;-71
2023/10/22 06:55:17;;;;;;;;;;;;;;;16.81;50.49;96399.78;4218497;28;5684;-70
2023/10/22 06:57:18;;;;;;;;;;;;;;;16.83;50.59;96409.16;4215048;28;5776;-70
2023/10/22 06:59:21;;;;;;;;;;;;;;;16.86;50.55;96410.53;4205089;28;5765;-71
2023/10/22 07:01:24;;;;;;;;;;;;;;;16.87;50.62;96399.63;4214952;28;5655;-71
2023/10/22 07:03:26;;;;;;;;;;;;;;;16.87;50.56;96398.81;4218414;28;5754;-70
2023/10/22 07:05:29;;;;;;;;;;;;;;;16.91;50.66;96409.81;4218647;28;5671;-71
2023/10/22 07:07:32;;;;;;;;;;;;;;;16.90;50.54;96403.69;4222642;28;5664;-71
2023/10/22 07:09:37;;;;;;;;;;;;;;;16.91;50.71;96404.47;4218339;28;5655;-70
2023/10/22 07:11:40;;;;;;;;;;;;;;;16.92;50.75;96398.91;4218124;28;5729;-70
2023/10/22 07:13:43;;;;;;;;;;;;;;;16.95;50.70;96400.25;4218808;28;5653;-70
2023/10/22 07:15:46;;;;;;;;;;;;;;;16.96;50.67;96401.88;4218033;28;5766;-70
2023/10/22 07:17:49;;;;;;;;;;;;;;;17.00;50.74;96414.53;4218733;28;5663;-71
2023/10/22 07:19:53;;;;;;;;;;;;;;;17.02;50.80;96403.59;4216363;28;5695;-70
2023/10/22 07:21:56;;;;;;;;;;;;;;;17.02;50.51;96404.41;4218696;28;5810;-71
2023/10/22 07:23:59;;;;;;;;;;;;;;;17.06;50.71;96412.72;4218458;28;5797;-70
2023/10/22 07:26:04;;;;;;;;;;;;;;;17.07;50.71;96403.66;4217603;28;5729;-71
2023/10/22 07:28:07;;;;;;;;;;;;;;;17.09;50.83;96406.91;4218259;28;5679;-71
2023/10/22 07:30:11;;;;;;;;;;;;;;;17.09;50.83;96407.69;4209560;28;5960;-71
2023/10/22 07:32:13;;;;;;;;;;;;;;;17.11;50.81;96415.50;4217762;28;5674;-71
2023/10/22 07:34:16;;;;;;;;;;;;;;;17.11;50.78;96415.50;4218344;28;5642;-71
2023/10/22 07:36:19;;;;;;;;;;;;;;;17.13;50.72;96418.72;4217954;28;6466;-71
2023/10/22 07:38:22;;;;;;;;;;;;;;;17.14;50.68;96425.69;4217314;28;5840;-71
2023/10/22 07:40:24;;;;;;;;;;;;;;;17.17;50.92;96430.53;4218428;28;5675;-71
2023/10/22 07:42:29;;;;;;;;;;;;;;;17.18;50.72;96426.81;4219073;28;5869;-71
2023/10/22 07:44:32;;;;;;;;;;;;;;;17.17;50.65;96422.53;4222964;28;5109;-71
2023/10/22 07:46:35;;;;;;;;;;;;;;;17.17;50.67;96420.66;4213795;28;5633;-71
2023/10/22 07:48:38;;;;;;;;;;;;;;;17.18;50.55;96424.13;4218104;28;5725;-70
2023/10/22 07:50:41;;;;;;;;;;;;;;;17.20;50.35;96424.69;4217164;28;5675;-70
2023/10/22 07:52:44;;;;;;;;;;;;;;;17.22;50.40;96422.63;4218051;28;5674;-70
2023/10/22 07:54:49;;;;;;;;;;;;;;;17.23;50.38;96429.56;4216671;28;6364;-71
2023/10/22 07:56:52;;;;;;;;;;;;;;;17.23;50.47;96434.91;4219096;28;5678;-69
2023/10/22 07:58:56;;;;;;;;;;;;;;;17.22;50.33;96432.50;4217724;28;5680;-70
2023/10/22 08:00:59;;;;;;;;;;;;;;;17.21;50.28;96430.84;4219753;28;5721;-70
2023/10/22 08:03:01;;;;;;;;;;;;;;;17.21;50.41;96431.66;4218877;28;5766;-70
2023/10/22 08:05:05;;;;;;;;;;;;;;;17.21;50.24;96430.84;4217876;28;5638;-70
2023/10/22 08:07:08;;;;;;;;;;;;;;;17.22;50.35;96438.66;4217515;28;5731;-70
2023/10/22 08:09:11;;;;;;;;;;;;;;;17.24;50.24;96436.53;4209781;28;5641;-70
2023/10/22 08:11:14;;;;;;;;;;;;;;;17.25;50.37;96435.47;4217319;28;6375;-70
2023/10/22 08:13:17;;;;;;;;;;;;;;;17.28;50.31;96437.66;4217883;28;5679;-70
2023/10/22 08:15:21;;;;;;;;;;;;;;;17.27;50.00;96444.06;4217921;28;5671;-71
2023/10/22 08:17:24;;;;;;;;;;;;;;;17.29;50.07;96444.63;4217080;28;5630;-71
2023/10/22 08:19:27;;;;;;;;;;;;;;;17.32;49.94;96448.66;4217364;28;5663;-70
2023/10/22 08:21:31;;;;;;;;;;;;;;;17.33;49.91;96447.63;4216843;28;5634;-70
2023/10/22 08:23:34;;;;;;;;;;;;;;;17.33;49.75;96450.28;4215601;28;5796;-70
2023/10/22 08:25:38;;;;;;;;;;;;;;;17.32;49.63;96448.66;4217456;28;5821;-70
2023/10/22 08:27:41;;;;;;;;;;;;;;;17.35;49.53;96442.84;4213204;28;5838;-70
2023/10/22 08:29:44;;;;;;;;;;;;;;;17.36;49.63;96445.25;4215445;28;5683;-70
2023/10/22 08:31:48;;;;;;;;;;;;;;;17.38;49.40;96443.16;4213549;28;5884;-70
2023/10/22 08:33:51;;;;;;;;;;;;;;;17.38;49.37;96440.47;4217180;28;5667;-71
2023/10/22 08:35:54;;;;;;;;;;;;;;;17.41;49.31;96439.19;4217261;28;5724;-70
2023/10/22 08:37:57;;;;;;;;;;;;;;;17.41;49.31;96448.00;4217248;28;5676;-70
2023/10/22 08:40:00;;;;;;;;;;;;;;;17.42;49.40;96454.97;4217406;28;6367;-70
2023/10/22 08:42:09;;;;;;;;;;;;;;;17.44;49.43;96457.38;4215403;28;6612;-70
2023/10/22 08:44:15;;;;;;;;;;;;;;;17.47;49.29;96462.25;4217308;28;5652;-70
2023/10/22 08:46:18;;;;;;;;;;;;;;;17.48;49.33;96463.06;4212517;28;5699;-70
2023/10/22 08:48:25;;;;;;;;;;;;;;;17.47;49.18;96459.59;4207349;28;5667;-70
2023/10/22 08:50:29;;;;;;;;;;;;;;;17.46;49.30;96460.66;4217414;28;6693;-70
2023/10/22 08:52:33;;;;;;;;;;;;;;;17.47;49.05;96462.25;4216288;28;5708;-70
2023/10/22 08:54:36;;;;;;;;;;;;;;;17.49;49.28;96464.69;4211267;28;5660;-70
2023/10/22 08:56:42;;;;;;;;;;;;;;;17.51;49.13;96467.91;4216463;28;5686;-71
2023/10/22 08:58:45;;;;;;;;;;;;;;;17.51;49.23;96468.72;4211447;28;5678;-70
2023/10/22 09:00:50;;;;;;;;;;;;;;;17.53;49.13;96466.63;4217103;28;5643;-71
2023/10/22 09:02:53;;;;;;;;;;;;;;;17.55;49.15;96467.16;4216802;28;6674;-70
2023/10/22 09:04:57;;;;;;;;;;;;;;;17.57;49.03;96464.28;4218713;28;5675;-70
2023/10/22 09:07:00;;;;;;;;;;;;;;;17.57;49.07;96459.75;4209301;28;5715;-71
2023/10/22 09:09:03;;;;;;;;;;;;;;;17.60;49.16;96461.09;4213967;28;5696;-70
2023/10/22 09:11:12;;;;;;;;;;;;;;;17.61;49.11;96463.53;4215444;28;5676;-70
2023/10/22 09:13:20;;;;;;;;;;;;;;;17.63;49.24;96455.25;4207352;28;5891;-70
2023/10/22 09:15:23;;;;;;;;;;;;;;;17.62;48.98;96462.47;4208614;28;5833;-63
2023/10/22 09:17:26;;;;;;;;;;;;;;;17.62;49.04;96469.69;4212699;28;5739;-62
2023/10/22 09:19:37;;;;;;;;;;;;;;;17.63;49.02;96461.41;4215933;28;5746;-62
2023/10/22 09:21:45;;;;;;;;;;;;;;;17.64;48.98;96468.38;4212826;28;5749;-72
2023/10/22 09:24:02;;;;;;;;;;;;;;;17.64;49.02;96462.22;4212758;28;5676;-72
2023/10/22 09:26:07;;;;;;;;;;;;;;;17.65;49.03;96464.66;4214007;28;5652;-71
2023/10/22 09:28:15;;;;;;;;;;;;;;;17.68;49.31;96466.03;4210781;28;5675;-72
2023/10/22 09:30:29;;;;;;;;;;;;;;;17.68;48.99;96474.88;4214523;28;5805;-73
2023/10/22 09:32:33;;;;;;;;;;;;;;;17.69;49.12;96473.03;4208970;28;5732;-76
2023/10/22 09:34:36;;;;;;;;;;;;;;;17.69;49.11;96471.16;4212378;28;5778;-64
2023/10/22 09:36:53;;;;;;;;;;;;;;;17.69;48.93;96473.84;4206584;28;5790;-69
2023/10/22 09:38:57;;;;;;;;;;;;;;;17.70;49.10;96472.78;4213758;28;5765;-67
2023/10/22 09:40:59;;;;;;;;;;;;;;;17.70;49.05;96471.97;4212672;28;5707;-77
2023/10/22 09:43:04;;;;;;;;;;;;;;;17.72;48.93;96480.56;4209994;28;5634;-63
2023/10/22 09:45:07;;;;;;;;;;;;;;;17.71;48.95;96485.09;4210593;28;5724;-62
2023/10/22 09:47:10;;;;;;;;;;;;;;;17.72;49.00;96486.72;4207244;28;5758;-63
2023/10/22 09:49:16;;;;;;;;;;;;;;;17.70;49.10;96480.00;4213109;28;5761;-69
2023/10/22 09:51:21;;;;;;;;;;;;;;;17.69;49.26;96483.72;4213792;28;5878;-73
2023/10/22 09:53:31;;;;;;;;;;;;;;;17.69;49.15;96481.06;4209546;28;5671;-69
2023/10/22 09:55:37;;;;;;;;;;;;;;;17.72;49.18;96492.06;4208298;28;5675;-68
2023/10/22 09:57:46;;;;;;;;;;;;;;;17.71;49.09;96490.44;4213220;28;5853;-67
2023/10/22 09:59:49;;;;;;;;;;;;;;;17.72;49.19;96485.91;4211944;28;6751;-66
2023/10/22 10:01:53;;;;;;;;;;;;;;;17.74;49.08;96497.97;4203582;28;5795;-71
2023/10/22 10:03:59;;;;;;;;;;;;;;;17.74;49.31;96489.13;4213816;28;5774;-71
2023/10/22 10:06:04;;;;;;;;;;;;;;;17.75;49.17;96485.41;4213123;28;5774;-70
2023/10/22 10:08:08;;;;;;;;;;;;;;;17.77;49.19;96493.19;4213830;28;5724;-71
2023/10/22 10:10:12;;;;;;;;;;;;;;;17.78;49.22;96497.47;4212940;28;5895;-69
2023/10/22 10:12:16;;;;;;;;;;;;;;;17.79;49.23;96499.91;4214326;28;5846;-73
2023/10/22 10:14:41;;;;;;;;;;;;;;;17.80;49.12;96501.53;4217171;28;5085;-73
2023/10/22 10:16:44;;;;;;;;;;;;;;;17.82;49.18;96496.75;4213282;28;5766;-72
2023/10/22 10:19:08;;;;;;;;;;;;;;;17.81;49.00;96505.81;4213105;28;7513;-63
2023/10/22 10:21:39;;;;;;;;;;;;;;;17.82;48.91;96506.63;4211893;28;5742;-68
2023/10/22 10:24:22;;;;;;;;;;;;;;;17.82;49.14;96512.78;4212348;28;5837;-69
2023/10/22 10:26:33;;;;;;;;;;;;;;;17.83;49.08;96498.38;4218052;28;5660;-67
2023/10/22 10:28:42;;;;;;;;;;;;;;;17.82;48.98;96502.09;4209670;28;5675;-68
2023/10/22 10:30:52;;;;;;;;;;;;;;;17.83;48.96;96498.38;4208308;28;5708;-74
2023/10/22 10:32:55;;;;;;;;;;;;;;;17.81;48.84;96497.00;4210909;28;5819;-63
2023/10/22 10:35:15;;;;;;;;;;;;;;;17.80;48.62;96488.16;4215983;28;5670;-63
2023/10/22 10:37:20;;;;;;;;;;;;;;;17.80;48.70;96498.06;4214617;28;5754;-63
2023/10/22 10:39:37;;;;;;;;;;;;;;;17.80;48.60;96488.16;4211394;28;5774;-64
2023/10/22 10:41:54;;;;;;;;;;;;;;;17.80;48.67;96482.81;4213153;28;5108;-64
2023/10/22 10:44:07;;;;;;;;;;;;;;;17.80;48.47;96482.81;4215037;28;5784;-64
2023/10/22 10:46:26;;;;;;;;;;;;;;;17.82;48.57;96478.03;4211848;28;5990;-67
2023/10/22 10:48:47;;;;;;;;;;;;;;;17.83;48.29;96478.84;4208348;28;5675;-67
2023/10/22 10:50:51;;;;;;;;;;;;;;;17.85;48.41;96480.22;4209383;28;5675;-65
2023/10/22 10:52:59;;;;;;;;;;;;;;;17.85;48.58;96480.22;4212860;28;5822;-68
2023/10/22 10:55:01;;;;;;;;;;;;;;;17.88;48.55;96470.88;4217598;28;5840;-69
2023/10/22 10:57:05;;;;;;;;;;;;;;;17.85;48.32;96479.41;4208727;28;5890;-68